Time;durP1;ratioP1;P1;durP2;ratioP2;P2;SDS_P1;SDS_P2;PMS_P1;PMS_P2;Temp;Humidity;BMP_temperature;BMP_pressure;BME280_temperature;BME280_humidity;BME280_pressure;Samples;Min_cycle;Max_cycle;Signal;HPM_P1;HPM_P2
2022/07/02 00:02:26;;;;;;;23.00;16.10;;;12.60;97.00;;;;;;5046448;28;20421;-69
2022/07/02 00:04:59;;;;;;;22.40;14.32;;;12.60;96.90;;;;;;5045358;28;20033;-69
2022/07/02 00:07:26;;;;;;;21.75;13.48;;;12.40;96.80;;;;;;5048148;28;20128;-69
2022/07/02 00:09:56;;;;;;;20.58;13.93;;;12.40;96.90;;;;;;5045805;28;20076;-69
2022/07/02 00:12:23;;;;;;;18.42;13.45;;;12.40;96.90;;;;;;5044643;28;20017;-69
2022/07/02 00:14:58;;;;;;;23.52;14.40;;;12.30;97.00;;;;;;5042846;28;20044;-69
2022/07/02 00:17:24;;;;;;;20.42;13.75;;;12.30;96.90;;;;;;5046176;28;20341;-69
2022/07/02 00:19:51;;;;;;;18.05;13.85;;;12.30;97.10;;;;;;5045025;28;20049;-69
2022/07/02 00:22:17;;;;;;;20.65;14.40;;;12.30;97.00;;;;;;5047076;28;20113;-69
2022/07/02 00:24:44;;;;;;;22.38;14.57;;;12.20;97.00;;;;;;5045716;28;20174;-69
2022/07/02 00:27:14;;;;;;;19.13;14.77;;;12.20;97.00;;;;;;5042394;28;20025;-69
2022/07/02 00:29:58;;;;;;;20.93;14.53;;;12.30;97.10;;;;;;5040511;28;20606;-69
2022/07/02 00:32:27;;;;;;;19.77;13.60;;;12.20;96.90;;;;;;5046358;28;20271;-69
2022/07/02 00:34:56;;;;;;;21.45;13.18;;;12.10;96.90;;;;;;5044261;28;20040;-69
2022/07/02 00:37:22;;;;;;;16.92;12.98;;;12.10;96.90;;;;;;5057463;28;20150;-69
2022/07/02 00:39:48;;;;;;;23.13;13.90;;;12.10;96.90;;;;;;5046329;28;20418;-69
2022/07/02 00:42:14;;;;;;;19.80;12.93;;;12.10;96.90;;;;;;5042584;28;20029;-69
2022/07/02 00:44:40;;;;;;;17.58;12.90;;;12.10;97.00;;;;;;5038613;28;20376;-69
2022/07/02 00:47:08;;;;;;;21.30;14.38;;;12.10;97.00;;;;;;5047663;28;20119;-69
2022/07/02 00:49:34;;;;;;;21.67;13.43;;;12.10;97.00;;;;;;5041206;28;20322;-69
2022/07/02 00:52:01;;;;;;;20.25;13.52;;;12.10;97.00;;;;;;5045605;28;20024;-69
2022/07/02 00:54:27;;;;;;;19.45;12.82;;;12.10;97.00;;;;;;5038227;28;20041;-69
2022/07/02 00:56:53;;;;;;;24.15;12.85;;;12.00;97.00;;;;;;5041885;28;20488;-69
2022/07/02 00:59:23;;;;;;;21.48;13.02;;;12.10;97.10;;;;;;5040369;28;20029;-69
2022/07/02 01:01:49;;;;;;;18.35;12.55;;;12.00;96.90;;;;;;5047965;28;20037;-69
2022/07/02 01:04:16;;;;;;;18.60;12.63;;;12.00;96.80;;;;;;5037705;28;20036;-69
2022/07/02 01:06:43;;;;;;;16.95;12.80;;;12.00;97.00;;;;;;5046203;28;20119;-69
2022/07/02 01:11:59;;;;;;;15.15;11.90;;;12.00;96.60;;;;;;5037262;28;20036;-69
2022/07/02 01:14:25;;;;;;;21.75;12.80;;;12.00;96.80;;;;;;5037495;28;20268;-69
2022/07/02 01:16:51;;;;;;;24.15;13.77;;;11.90;96.70;;;;;;5047270;28;20036;-69
2022/07/02 01:19:20;;;;;;;16.25;12.75;;;12.00;96.80;;;;;;5044771;28;20424;-69
2022/07/02 01:22:23;;;;;;;16.17;12.65;;;12.10;96.80;;;;;;5041298;28;20098;-69
2022/07/02 01:24:50;;;;;;;17.60;12.73;;;12.10;96.70;;;;;;5043593;28;20040;-69
2022/07/02 01:27:17;;;;;;;17.05;13.48;;;12.00;96.70;;;;;;5040619;28;20036;-69
2022/07/02 01:29:43;;;;;;;21.65;13.43;;;12.00;96.90;;;;;;5043060;28;20052;-69
2022/07/02 01:32:09;;;;;;;20.75;12.55;;;12.10;96.90;;;;;;5044725;28;20037;-69
2022/07/02 01:34:44;;;;;;;20.05;13.80;;;12.00;96.70;;;;;;5040240;28;20614;-69
2022/07/02 01:37:11;;;;;;;16.10;13.40;;;12.00;96.80;;;;;;5042809;28;20081;-69
2022/07/02 01:39:38;;;;;;;21.05;14.38;;;12.00;96.90;;;;;;5045448;28;20025;-69
2022/07/02 01:42:05;;;;;;;19.25;13.90;;;12.10;97.10;;;;;;5049311;28;20337;-69
2022/07/02 01:44:31;;;;;;;20.25;14.30;;;12.10;96.90;;;;;;5049185;28;20035;-69
2022/07/02 01:46:56;;;;;;;17.10;13.55;;;12.20;96.90;;;;;;5052174;28;20037;-69
2022/07/02 01:49:22;;;;;;;23.80;13.88;;;12.20;96.70;;;;;;5046071;28;20047;-69
2022/07/02 01:51:47;;;;;;;20.15;14.05;;;12.20;96.60;;;;;;5043844;28;20456;-69
2022/07/02 01:54:13;;;;;;;20.58;13.27;;;12.10;96.60;;;;;;5046638;28;20079;-69
2022/07/02 01:56:39;;;;;;;16.40;13.00;;;12.20;96.50;;;;;;5047579;28;20495;-69
2022/07/02 01:59:05;;;;;;;17.40;12.07;;;12.20;96.40;;;;;;5044624;28;20101;-69
2022/07/02 02:01:31;;;;;;;17.10;12.20;;;12.20;96.20;;;;;;5049704;28;20429;-69
2022/07/02 02:03:56;;;;;;;17.60;11.57;;;12.20;96.30;;;;;;5045992;28;20372;-69
2022/07/02 02:06:22;;;;;;;15.40;10.88;;;12.20;96.30;;;;;;5047111;28;20087;-69
2022/07/02 02:08:48;;;;;;;14.50;11.30;;;12.10;96.10;;;;;;5047955;28;20336;-69
2022/07/02 02:11:14;;;;;;;14.65;10.57;;;12.10;96.10;;;;;;5047228;28;20318;-69
2022/07/02 02:13:39;;;;;;;13.23;10.50;;;12.00;96.20;;;;;;5043982;28;20044;-69
2022/07/02 02:16:05;;;;;;;15.93;10.05;;;12.00;96.20;;;;;;5049086;28;20041;-69
2022/07/02 02:18:30;;;;;;;16.00;10.60;;;12.00;96.30;;;;;;5046438;28;20344;-69
2022/07/02 02:20:56;;;;;;;18.50;10.48;;;12.00;96.20;;;;;;5041468;28;20044;-69
2022/07/02 02:23:21;;;;;;;15.10;11.02;;;12.00;96.20;;;;;;5044743;28;20538;-69
2022/07/02 02:25:47;;;;;;;15.45;10.38;;;11.90;96.20;;;;;;5048886;28;20033;-69
2022/07/02 02:28:12;;;;;;;15.27;10.43;;;11.90;96.30;;;;;;5040547;28;20075;-69
2022/07/02 02:30:38;;;;;;;16.58;10.40;;;11.90;96.40;;;;;;5046392;28;20387;-69
2022/07/02 02:33:03;;;;;;;18.45;10.52;;;11.90;96.40;;;;;;5045391;28;20429;-69
2022/07/02 02:35:29;;;;;;;15.88;10.20;;;11.80;96.20;;;;;;5047667;28;20040;-69
2022/07/02 02:37:55;;;;;;;10.85;9.70;;;11.80;96.30;;;;;;5047485;28;20044;-69
2022/07/02 02:40:20;;;;;;;14.60;10.27;;;11.80;96.20;;;;;;5044826;28;20044;-69
2022/07/02 02:42:46;;;;;;;13.95;10.52;;;11.70;96.30;;;;;;5049600;28;20334;-69
2022/07/02 02:45:11;;;;;;;14.20;11.15;;;11.70;96.40;;;;;;5043634;28;20436;-69
2022/07/02 02:47:36;;;;;;;14.13;10.70;;;11.70;96.30;;;;;;5043540;28;20245;-69
2022/07/02 02:50:05;;;;;;;19.40;11.18;;;11.80;96.30;;;;;;5044009;28;20033;-69
2022/07/02 02:52:31;;;;;;;14.45;10.65;;;11.70;96.30;;;;;;5044400;28;20111;-69
2022/07/02 02:54:56;;;;;;;16.25;11.73;;;11.70;96.30;;;;;;5043472;28;20502;-69
2022/07/02 02:57:22;;;;;;;15.90;11.85;;;11.70;96.30;;;;;;5042463;28;20039;-69
2022/07/02 02:59:47;;;;;;;13.80;11.35;;;11.60;96.30;;;;;;5044049;28;20055;-69
2022/07/02 03:02:13;;;;;;;17.67;12.18;;;11.60;96.30;;;;;;5046820;28;20417;-69
2022/07/02 03:04:41;;;;;;;19.75;11.63;;;11.60;96.30;;;;;;5043808;28;20372;-69
2022/07/02 03:07:07;;;;;;;14.93;11.65;;;11.60;96.50;;;;;;5049487;28;20040;-69
2022/07/02 03:09:32;;;;;;;19.05;12.38;;;11.50;96.50;;;;;;5045977;28;20365;-69
2022/07/02 03:11:58;;;;;;;17.02;12.15;;;11.60;96.50;;;;;;5045855;28;20045;-69
2022/07/02 03:14:23;;;;;;;18.58;11.85;;;11.60;96.50;;;;;;5046103;28;20051;-69
2022/07/02 03:16:49;;;;;;;13.98;12.20;;;11.60;96.50;;;;;;5043958;28;20036;-69
2022/07/02 03:19:14;;;;;;;17.65;12.18;;;11.60;96.50;;;;;;5045363;28;20063;-69
2022/07/02 03:21:40;;;;;;;17.38;11.07;;;11.60;96.30;;;;;;5041565;28;20058;-69
2022/07/02 03:24:05;;;;;;;16.88;11.57;;;11.50;96.30;;;;;;5044891;28;20467;-69
2022/07/02 03:26:31;;;;;;;13.68;10.55;;;11.60;96.30;;;;;;5046377;28;20441;-69
2022/07/02 03:28:56;;;;;;;15.60;11.25;;;11.60;96.20;;;;;;5044091;28;20033;-69
2022/07/02 03:31:22;;;;;;;15.98;11.02;;;11.60;96.20;;;;;;5043568;28;20036;-69
2022/07/02 03:33:47;;;;;;;14.02;10.68;;;11.60;96.30;;;;;;5044112;28;20091;-69
2022/07/02 03:36:13;;;;;;;14.88;10.00;;;11.70;96.10;;;;;;5048337;28;20033;-69
2022/07/02 03:38:39;;;;;;;14.48;9.65;;;11.60;96.00;;;;;;5044932;28;20155;-69
2022/07/02 03:41:06;;;;;;;15.45;10.30;;;11.70;95.80;;;;;;5045796;28;20516;-69
2022/07/02 03:43:32;;;;;;;13.43;9.18;;;11.70;95.70;;;;;;5046399;28;20089;-69
2022/07/02 03:45:58;;;;;;;14.18;9.70;;;11.70;95.50;;;;;;5041787;28;20174;-69
2022/07/02 03:48:23;;;;;;;12.45;9.68;;;11.70;95.60;;;;;;5046413;28;20455;-69
2022/07/02 03:50:49;;;;;;;12.85;10.15;;;11.80;95.70;;;;;;5044316;28;20101;-69
2022/07/02 03:53:14;;;;;;;11.57;8.95;;;11.80;95.50;;;;;;5046837;28;20045;-69
2022/07/02 03:55:40;;;;;;;11.98;8.27;;;11.80;95.60;;;;;;5043329;28;20090;-69
2022/07/02 03:58:05;;;;;;;14.30;9.38;;;11.80;95.40;;;;;;5042946;28;20349;-69
2022/07/02 04:00:31;;;;;;;12.32;8.93;;;11.80;95.30;;;;;;5043265;28;20037;-69
2022/07/02 04:02:57;;;;;;;16.35;9.45;;;11.80;95.30;;;;;;5046227;28;20032;-69
2022/07/02 04:05:22;;;;;;;14.07;9.40;;;11.80;95.20;;;;;;5047401;28;20025;-69
2022/07/02 04:07:48;;;;;;;14.13;7.78;;;11.80;95.20;;;;;;5048643;28;20040;-69
2022/07/02 04:10:13;;;;;;;11.38;8.10;;;11.90;95.10;;;;;;5047611;28;20074;-69
2022/07/02 04:12:38;;;;;;;16.48;8.27;;;11.90;95.30;;;;;;5047159;28;20143;-69
2022/07/02 04:15:05;;;;;;;12.38;8.10;;;11.90;95.00;;;;;;5041194;28;20503;-69
2022/07/02 04:17:30;;;;;;;9.55;7.60;;;12.00;94.90;;;;;;5045878;28;20037;-70
2022/07/02 04:19:56;;;;;;;10.70;7.20;;;12.10;94.50;;;;;;5047617;28;20506;-70
2022/07/02 04:22:22;;;;;;;10.15;7.18;;;12.10;94.20;;;;;;5040357;28;20024;-70
2022/07/02 04:24:47;;;;;;;13.48;7.03;;;12.20;93.80;;;;;;5041979;28;20083;-70
2022/07/02 04:27:13;;;;;;;10.15;7.18;;;12.30;93.60;;;;;;5044450;28;20051;-70
2022/07/02 04:29:38;;;;;;;13.10;6.53;;;12.30;93.10;;;;;;5043313;28;20388;-70
2022/07/02 04:32:04;;;;;;;9.95;7.05;;;12.40;93.10;;;;;;5045155;28;20043;-70
2022/07/02 04:34:30;;;;;;;9.43;6.45;;;12.30;93.20;;;;;;5047112;28;20473;-70
2022/07/02 04:36:55;;;;;;;9.18;6.22;;;12.30;93.40;;;;;;5044410;28;20033;-70
2022/07/02 04:39:21;;;;;;;9.13;6.35;;;12.30;93.70;;;;;;5046193;28;20148;-70
2022/07/02 04:41:46;;;;;;;8.50;6.35;;;12.30;93.50;;;;;;5045863;28;20056;-70
2022/07/02 04:44:12;;;;;;;9.85;6.30;;;12.40;93.50;;;;;;5039860;28;20041;-70
2022/07/02 04:46:37;;;;;;;10.10;6.47;;;12.50;93.30;;;;;;5044908;28;20631;-70
2022/07/02 04:49:03;;;;;;;12.63;6.35;;;12.60;93.00;;;;;;5046304;28;20029;-70
2022/07/02 04:51:29;;;;;;;10.23;6.53;;;12.60;93.10;;;;;;5042479;28;20041;-70
2022/07/02 04:53:54;;;;;;;7.95;6.13;;;12.60;93.00;;;;;;5042960;28;20025;-70
2022/07/02 04:56:20;;;;;;;10.25;6.38;;;12.70;92.90;;;;;;5043277;28;20033;-70
2022/07/02 04:58:45;;;;;;;10.27;6.57;;;12.80;92.70;;;;;;5041947;28;20481;-70
2022/07/02 05:01:11;;;;;;;8.27;5.47;;;12.80;92.70;;;;;;5037409;28;20405;-70
2022/07/02 05:03:36;;;;;;;9.10;6.38;;;12.90;92.30;;;;;;5042086;28;20040;-70
2022/07/02 05:06:03;;;;;;;10.30;6.10;;;13.00;92.20;;;;;;5047683;28;20037;-70
2022/07/02 05:08:28;;;;;;;11.20;5.80;;;13.00;92.20;;;;;;5046015;28;20132;-70
2022/07/02 05:10:54;;;;;;;8.43;5.47;;;13.00;92.10;;;;;;5046276;28;20108;-70
2022/07/02 05:13:21;;;;;;;7.60;4.97;;;13.10;92.10;;;;;;5041450;28;20144;-70
2022/07/02 05:15:47;;;;;;;8.15;5.38;;;13.10;92.30;;;;;;5043738;28;20048;-70
2022/07/02 05:18:13;;;;;;;9.23;5.63;;;13.20;91.60;;;;;;5048059;28;20081;-70
2022/07/02 05:20:38;;;;;;;6.85;5.43;;;13.30;91.40;;;;;;5045307;28;20388;-70
2022/07/02 05:23:04;;;;;;;11.82;6.20;;;13.50;91.20;;;;;;5049326;28;20056;-70
2022/07/02 05:25:29;;;;;;;11.27;5.55;;;13.50;91.20;;;;;;5047508;28;20068;-70
2022/07/02 05:27:55;;;;;;;9.82;5.35;;;13.60;91.60;;;;;;5042418;28;20463;-69
2022/07/02 05:30:20;;;;;;;7.43;5.35;;;13.70;91.30;;;;;;5045917;28;20112;-68
2022/07/02 05:32:46;;;;;;;8.88;5.22;;;13.80;91.00;;;;;;5048572;28;20132;-68
2022/07/02 05:35:11;;;;;;;9.43;5.10;;;13.80;91.30;;;;;;5046094;28;20095;-68
2022/07/02 05:37:37;;;;;;;9.40;4.97;;;13.90;91.40;;;;;;5048675;28;20341;-68
2022/07/02 05:40:03;;;;;;;8.60;4.80;;;13.90;91.20;;;;;;5038809;28;20396;-68
2022/07/02 05:42:29;;;;;;;9.68;4.80;;;14.10;91.10;;;;;;5044253;28;20033;-68
2022/07/02 05:44:54;;;;;;;7.32;4.40;;;14.20;90.90;;;;;;5045435;28;20464;-68
2022/07/02 05:47:20;;;;;;;6.30;4.32;;;14.30;91.10;;;;;;5049931;28;20070;-68
2022/07/02 05:49:45;;;;;;;8.50;4.97;;;14.50;89.90;;;;;;5044558;28;20033;-68
2022/07/02 05:52:11;;;;;;;9.02;4.43;;;14.60;89.80;;;;;;5039827;28;20453;-68
2022/07/02 05:54:37;;;;;;;5.50;3.90;;;14.60;90.00;;;;;;5044222;28;20528;-65
2022/07/02 05:57:02;;;;;;;6.22;3.80;;;14.60;89.30;;;;;;5040038;28;20353;-64
2022/07/02 05:59:28;;;;;;;9.18;3.78;;;14.80;89.80;;;;;;5036920;28;20106;-65
2022/07/02 06:01:53;;;;;;;11.13;4.03;;;14.90;89.30;;;;;;5045567;28;20166;-64
2022/07/02 06:04:19;;;;;;;5.97;3.83;;;15.00;89.20;;;;;;5047426;28;20433;-65
2022/07/02 06:09:29;;;;;;;7.97;3.35;;;15.40;86.60;;;;;;5041926;28;20040;-64
2022/07/02 06:11:54;;;;;;;8.73;3.65;;;15.50;86.70;;;;;;5048942;28;20398;-64
2022/07/02 06:14:20;;;;;;;11.02;3.30;;;15.70;86.30;;;;;;5044108;28;20433;-64
2022/07/02 06:16:45;;;;;;;9.95;3.17;;;15.80;86.30;;;;;;5046779;28;20048;-64
2022/07/02 06:19:11;;;;;;;4.20;2.40;;;16.00;85.40;;;;;;5049493;28;20060;-65
2022/07/02 06:21:36;;;;;;;5.97;3.00;;;16.10;84.80;;;;;;5047942;28;20470;-64
2022/07/02 06:24:02;;;;;;;5.60;2.70;;;16.20;85.40;;;;;;5047244;28;20033;-65
2022/07/02 06:26:28;;;;;;;4.90;2.78;;;16.30;84.10;;;;;;5041136;28;20128;-64
2022/07/02 06:28:53;;;;;;;7.50;2.70;;;16.40;83.70;;;;;;5041567;28;20068;-64
2022/07/02 06:31:19;;;;;;;5.28;2.53;;;16.50;84.40;;;;;;5041548;28;20041;-64
2022/07/02 06:33:44;;;;;;;5.05;2.65;;;16.60;82.20;;;;;;5044542;28;20048;-65
2022/07/02 06:36:14;;;;;;;6.95;1.88;;;16.80;83.20;;;;;;5049026;28;20041;-64
2022/07/02 06:38:40;;;;;;;6.82;2.45;;;16.80;80.70;;;;;;5043112;28;20040;-64
2022/07/02 06:42:18;;;;;;;4.88;2.15;;;16.90;81.40;;;;;;5043159;28;20345;-64
2022/07/02 06:43:58;;;;;;;7.05;2.40;;;17.10;82.40;;;;;;5046074;28;20148;-64
2022/07/02 06:46:23;;;;;;;6.15;2.30;;;17.30;82.30;;;;;;5046655;28;20123;-64
2022/07/02 06:48:49;;;;;;;7.35;2.15;;;17.30;81.80;;;;;;5040674;28;20040;-65
2022/07/02 06:51:14;;;;;;;3.90;1.85;;;17.50;79.10;;;;;;5044599;28;20527;-65
2022/07/02 06:53:40;;;;;;;5.65;1.88;;;17.60;78.40;;;;;;5045359;28;20040;-65
2022/07/02 06:56:05;;;;;;;4.55;1.73;;;17.70;77.80;;;;;;5046435;28;20490;-65
2022/07/02 06:58:31;;;;;;;5.70;1.85;;;17.80;77.60;;;;;;5041608;28;20066;-65
2022/07/02 07:00:56;;;;;;;2.97;1.63;;;17.90;79.40;;;;;;5039918;28;20539;-64
2022/07/02 07:03:22;;;;;;;4.90;1.83;;;18.00;79.10;;;;;;5046466;28;20421;-64
2022/07/02 07:05:47;;;;;;;4.68;1.75;;;18.20;78.20;;;;;;5039843;28;20037;-64
2022/07/02 07:08:13;;;;;;;5.43;2.00;;;18.40;79.00;;;;;;5045797;28;20123;-65
2022/07/02 07:10:39;;;;;;;4.32;1.42;;;18.40;77.30;;;;;;5042172;28;20178;-65
2022/07/02 07:13:06;;;;;;;4.70;1.33;;;18.60;76.10;;;;;;5037171;28;20112;-65
2022/07/02 07:15:31;;;;;;;2.00;1.30;;;18.70;75.90;;;;;;5042237;28;20105;-65
2022/07/02 07:17:57;;;;;;;2.65;1.20;;;18.70;74.40;;;;;;5045369;28;20409;-65
2022/07/02 07:20:27;;;;;;;3.25;1.38;;;18.80;73.60;;;;;;5042855;28;20132;-65
2022/07/02 07:22:53;;;;;;;2.53;1.20;;;18.80;73.20;;;;;;5040078;28;20387;-65
2022/07/02 07:25:23;;;;;;;4.82;1.13;;;18.90;73.60;;;;;;5040515;28;20413;-65
2022/07/02 07:27:48;;;;;;;3.42;1.35;;;19.10;73.30;;;;;;5044666;28;20032;-66
2022/07/02 07:30:15;;;;;;;2.38;1.00;;;19.10;71.80;;;;;;5042006;28;20032;-66
2022/07/02 07:32:41;;;;;;;3.25;1.20;;;19.30;70.30;;;;;;5048652;28;20033;-66
2022/07/02 07:35:07;;;;;;;4.00;1.20;;;19.50;72.60;;;;;;5046017;28;20132;-66
2022/07/02 07:37:33;;;;;;;1.75;0.90;;;19.60;71.30;;;;;;5044326;28;20148;-66
2022/07/02 07:39:58;;;;;;;2.70;0.88;;;19.80;69.30;;;;;;5036373;28;20044;-66
2022/07/02 07:42:24;;;;;;;2.72;0.93;;;19.70;67.50;;;;;;5045412;28;20035;-66
2022/07/02 07:44:49;;;;;;;1.60;0.80;;;19.90;68.80;;;;;;5030365;28;20052;-66
2022/07/02 07:47:15;;;;;;;3.78;0.80;;;19.80;67.40;;;;;;5035566;28;20037;-65
2022/07/02 07:49:41;;;;;;;5.63;0.85;;;20.00;67.10;;;;;;5040009;28;20024;-65
2022/07/02 07:52:07;;;;;;;3.67;0.90;;;20.00;66.50;;;;;;5043145;28;20564;-65
2022/07/02 07:54:33;;;;;;;4.57;1.17;;;20.00;65.30;;;;;;5041092;28;21793;-65
2022/07/02 07:56:58;;;;;;;5.15;1.08;;;20.00;64.00;;;;;;5042124;28;20127;-67
2022/07/02 07:59:24;;;;;;;3.85;0.80;;;20.00;64.60;;;;;;5041896;28;20122;-66
2022/07/02 08:01:49;;;;;;;4.40;1.00;;;20.10;66.10;;;;;;5046620;28;20032;-66
2022/07/02 08:04:15;;;;;;;3.55;1.10;;;20.20;64.20;;;;;;5043020;28;20041;-67
2022/07/02 08:06:40;;;;;;;4.78;1.05;;;20.30;64.80;;;;;;5040694;28;20029;-66
2022/07/02 08:09:06;;;;;;;3.47;0.90;;;20.50;66.60;;;;;;5040764;28;20026;-66
2022/07/02 08:11:32;;;;;;;4.88;0.90;;;20.30;63.90;;;;;;5037181;28;20542;-67
2022/07/02 08:13:57;;;;;;;3.42;1.20;;;20.30;64.00;;;;;;5038800;28;20116;-67
2022/07/02 08:16:23;;;;;;;4.97;1.15;;;20.50;64.40;;;;;;5044440;28;20384;-67
2022/07/02 08:18:49;;;;;;;2.00;0.93;;;20.50;63.80;;;;;;5037989;28;20155;-67
2022/07/02 08:21:14;;;;;;;3.08;1.08;;;20.70;65.20;;;;;;5036608;28;20437;-67
2022/07/02 08:23:40;;;;;;;5.68;1.20;;;20.60;61.90;;;;;;5044845;28;20064;-67
2022/07/02 08:26:06;;;;;;;5.13;1.05;;;20.80;64.50;;;;;;5042234;28;20071;-69
2022/07/02 08:28:31;;;;;;;5.05;1.17;;;20.80;62.80;;;;;;5038090;28;20440;-69
2022/07/02 08:30:58;;;;;;;4.05;1.05;;;21.10;63.10;;;;;;5048370;28;20037;-69
2022/07/02 08:33:24;;;;;;;4.70;1.15;;;21.20;62.00;;;;;;5045304;28;20032;-69
2022/07/02 08:35:49;;;;;;;6.22;1.00;;;21.20;60.90;;;;;;5043094;28;20514;-69
2022/07/02 08:38:15;;;;;;;3.10;1.00;;;21.50;60.20;;;;;;5041512;28;20041;-69
2022/07/02 08:40:44;;;;;;;4.85;0.93;;;21.80;61.50;;;;;;5039516;28;20132;-70
2022/07/02 08:43:15;;;;;;;4.45;0.95;;;21.90;60.10;;;;;;5038910;28;20524;-70
2022/07/02 08:45:42;;;;;;;3.05;0.93;;;21.70;60.00;;;;;;5043089;28;20037;-70
2022/07/02 08:48:08;;;;;;;6.53;1.05;;;21.90;59.40;;;;;;5047368;28;20036;-70
2022/07/02 08:50:34;;;;;;;4.57;1.05;;;21.60;58.00;;;;;;5044292;28;20032;-67
2022/07/02 08:53:00;;;;;;;3.08;0.88;;;21.50;57.30;;;;;;5046578;28;20044;-69
2022/07/02 08:55:27;;;;;;;4.30;0.98;;;21.80;58.80;;;;;;5036228;28;20037;-69
2022/07/02 08:57:52;;;;;;;4.35;0.77;;;21.90;57.30;;;;;;5040876;28;20180;-68
2022/07/02 09:00:20;;;;;;;2.63;0.90;;;21.90;55.00;;;;;;5047115;28;20025;-66
2022/07/02 09:02:50;;;;;;;4.07;0.80;;;21.80;55.50;;;;;;5042806;28;20374;-67
2022/07/02 09:05:17;;;;;;;4.85;1.05;;;22.10;58.10;;;;;;5049554;28;20033;-68
2022/07/02 09:07:45;;;;;;;3.05;1.15;;;22.30;56.30;;;;;;5052464;28;20033;-68
2022/07/02 09:10:11;;;;;;;2.78;0.88;;;22.70;57.80;;;;;;5048470;28;20147;-68
2022/07/02 09:12:39;;;;;;;3.20;1.00;;;22.60;53.90;;;;;;5048017;28;20112;-67
2022/07/02 09:15:06;;;;;;;3.80;0.90;;;22.50;53.70;;;;;;5044080;28;20129;-68
2022/07/02 09:17:32;;;;;;;3.10;0.73;;;22.80;55.60;;;;;;5041759;28;20174;-68
2022/07/02 09:19:57;;;;;;;2.30;0.50;;;23.00;54.60;;;;;;5042587;28;20080;-68
2022/07/02 09:22:39;;;;;;;3.65;0.77;;;23.00;54.60;;;;;;5046228;28;20056;-68
2022/07/02 09:25:19;;;;;;;2.85;0.65;;;23.20;53.90;;;;;;5043258;28;20044;-69
2022/07/02 09:27:46;;;;;;;4.87;0.73;;;23.30;53.70;;;;;;5042408;28;20431;-69
2022/07/02 09:30:16;;;;;;;3.42;0.80;;;23.60;53.10;;;;;;5038205;28;20682;-68
2022/07/02 09:32:44;;;;;;;2.33;0.67;;;23.90;53.70;;;;;;5036605;28;20064;-68
2022/07/02 09:35:21;;;;;;;2.92;0.93;;;24.00;51.00;;;;;;5042051;28;20028;-68
2022/07/02 09:37:50;;;;;;;2.55;0.63;;;23.70;48.60;;;;;;5046924;28;20380;-68
2022/07/02 09:40:17;;;;;;;7.07;1.00;;;23.50;49.10;;;;;;5038152;28;20478;-69
2022/07/02 09:42:47;;;;;;;3.50;0.90;;;23.50;49.40;;;;;;5050663;28;20117;-71
2022/07/02 09:45:14;;;;;;;4.65;0.50;;;23.10;48.70;;;;;;5051084;28;20030;-70
2022/07/02 09:47:48;;;;;;;2.53;0.77;;;23.60;51.40;;;;;;5038552;28;20127;-70
2022/07/02 09:50:14;;;;;;;3.42;0.77;;;24.20;52.50;;;;;;5039789;28;20498;-70
2022/07/02 09:52:48;;;;;;;4.22;0.90;;;24.30;51.90;;;;;;5045908;28;20121;-70
2022/07/02 09:55:20;;;;;;;3.47;0.70;;;24.00;47.10;;;;;;5045307;28;20059;-70
2022/07/02 09:57:58;;;;;;;1.83;0.70;;;24.50;48.20;;;;;;5046903;28;20029;-70
2022/07/02 10:00:27;;;;;;;3.35;1.02;;;24.20;47.00;;;;;;5043425;28;20039;-70
2022/07/02 10:02:54;;;;;;;2.90;0.75;;;24.20;47.90;;;;;;5041151;28;20128;-70
2022/07/02 10:05:26;;;;;;;3.60;0.70;;;24.10;47.00;;;;;;5047760;28;20044;-70
2022/07/02 10:07:53;;;;;;;5.32;0.65;;;23.70;47.20;;;;;;5045490;28;20407;-69
2022/07/02 10:10:24;;;;;;;7.78;0.80;;;24.10;47.10;;;;;;5036693;28;20110;-71
2022/07/02 10:12:51;;;;;;;1.00;0.70;;;24.60;46.30;;;;;;5043433;28;20107;-70
2022/07/02 10:15:21;;;;;;;1.33;0.40;;;24.20;45.90;;;;;;5039331;28;20366;-69
2022/07/02 10:17:47;;;;;;;2.22;0.65;;;24.00;45.60;;;;;;5041953;28;20032;-67
2022/07/02 10:20:13;;;;;;;1.15;0.45;;;24.00;47.30;;;;;;5006310;28;1029946;-67
2022/07/02 10:22:39;;;;;;;1.83;0.60;;;24.20;43.30;;;;;;5048697;28;20410;-67
2022/07/02 10:25:05;;;;;;;3.60;0.70;;;24.50;45.00;;;;;;5045294;28;20064;-67
2022/07/02 10:27:31;;;;;;;2.58;0.70;;;24.30;43.60;;;;;;5046265;28;20471;-67
2022/07/02 10:29:57;;;;;;;1.85;0.65;;;23.90;43.40;;;;;;5042743;28;20025;-67
2022/07/02 10:32:50;;;;;;;2.47;0.50;;;24.40;41.30;;;;;;5050259;28;20087;-68
2022/07/02 10:35:16;;;;;;;1.85;0.40;;;25.40;42.60;;;;;;5049505;28;20472;-68
2022/07/02 10:37:43;;;;;;;1.92;0.70;;;25.50;40.40;;;;;;5047129;28;20036;-67
2022/07/02 10:40:09;;;;;;;2.45;0.60;;;25.00;43.20;;;;;;5041235;28;20028;-68
2022/07/02 10:42:44;;;;;;;2.78;0.60;;;24.70;42.80;;;;;;5041923;28;20037;-68
2022/07/02 10:45:14;;;;;;;2.03;0.68;;;24.60;42.80;;;;;;5045599;28;20495;-69
2022/07/02 10:47:53;;;;;;;1.63;0.80;;;24.90;43.80;;;;;;5046399;28;20040;-69
2022/07/02 10:50:46;;;;;;;2.13;0.70;;;25.00;44.60;;;;;;5047035;28;20033;-68
2022/07/02 10:53:14;;;;;;;4.10;0.60;;;24.00;43.30;;;;;;5046167;28;20107;-68
2022/07/02 10:55:55;;;;;;;2.33;0.63;;;23.90;45.50;;;;;;5039883;28;20025;-69
2022/07/02 10:58:23;;;;;;;1.55;0.50;;;24.90;45.40;;;;;;5046458;28;20025;-69
2022/07/02 11:00:50;;;;;;;2.97;0.50;;;25.70;43.90;;;;;;5048740;28;20486;-69
2022/07/02 11:03:21;;;;;;;1.48;0.38;;;26.30;41.00;;;;;;5044243;28;20025;-69
2022/07/02 11:05:58;;;;;;;2.30;0.50;;;25.90;41.50;;;;;;5049210;28;20491;-68
2022/07/02 11:08:45;;;;;;;2.13;0.40;;;26.50;43.30;;;;;;5044760;28;20052;-69
2022/07/02 11:11:19;;;;;;;0.88;0.35;;;25.70;38.50;;;;;;5038814;28;20092;-68
2022/07/02 11:13:54;;;;;;;1.92;0.52;;;25.50;40.10;;;;;;5040960;28;20036;-69
2022/07/02 11:16:30;;;;;;;2.70;0.70;;;25.50;41.10;;;;;;5036491;28;20060;-68
2022/07/02 11:18:58;;;;;;;1.83;0.40;;;26.20;39.60;;;;;;5040600;28;20064;-69
2022/07/02 11:21:24;;;;;;;2.05;0.70;;;26.10;39.00;;;;;;5045431;28;20025;-68
2022/07/02 11:23:50;;;;;;;2.33;0.47;;;26.90;42.40;;;;;;5045445;28;20448;-69
2022/07/02 11:26:23;;;;;;;4.47;0.73;;;27.00;39.90;;;;;;5040402;28;20445;-69
2022/07/02 11:28:49;;;;;;;1.77;0.63;;;27.40;41.40;;;;;;5040436;28;20067;-70
2022/07/02 11:31:21;;;;;;;1.23;0.40;;;27.00;37.30;;;;;;5038552;28;20033;-70
2022/07/02 11:33:50;;;;;;;1.63;0.40;;;27.40;39.80;;;;;;5040753;28;20371;-69
2022/07/02 11:36:16;;;;;;;2.45;0.73;;;27.30;40.60;;;;;;5045995;28;20045;-68
2022/07/02 11:38:46;;;;;;;1.40;0.50;;;27.20;39.50;;;;;;5039690;28;20037;-68
2022/07/02 11:41:26;;;;;;;3.10;0.70;;;26.40;38.80;;;;;;5039844;28;20090;-68
2022/07/02 11:43:56;;;;;;;1.58;0.52;;;25.60;41.80;;;;;;5042272;28;20036;-68
2022/07/02 11:46:24;;;;;;;2.28;0.65;;;25.10;41.70;;;;;;5050226;28;20051;-68
2022/07/02 11:48:51;;;;;;;2.00;0.40;;;26.40;43.00;;;;;;5045535;28;20033;-68
2022/07/02 11:51:19;;;;;;;1.63;0.55;;;26.30;39.70;;;;;;5036427;28;20083;-69
2022/07/02 11:53:55;;;;;;;5.00;0.68;;;25.50;39.90;;;;;;5043607;28;20037;-69
2022/07/02 11:56:21;;;;;;;2.58;0.73;;;25.00;41.50;;;;;;5037598;28;20094;-69
2022/07/02 11:58:48;;;;;;;1.77;0.50;;;25.00;43.20;;;;;;5040694;28;20025;-68
2022/07/02 12:01:28;;;;;;;2.42;0.80;;;25.50;44.60;;;;;;5047550;28;20467;-69
2022/07/02 12:03:58;;;;;;;1.38;0.40;;;25.50;42.20;;;;;;5045646;28;20021;-68
2022/07/02 12:06:27;;;;;;;3.30;0.60;;;25.30;40.60;;;;;;5042877;28;20109;-68
2022/07/02 12:08:54;;;;;;;1.98;0.50;;;25.10;42.50;;;;;;5049160;28;20033;-68
2022/07/02 12:11:21;;;;;;;2.42;0.50;;;24.60;42.60;;;;;;5042336;28;20082;-69
2022/07/02 12:13:48;;;;;;;2.92;0.70;;;24.70;43.10;;;;;;5036117;28;20033;-69
2022/07/02 12:16:15;;;;;;;4.47;0.70;;;24.40;43.90;;;;;;5037405;28;20041;-69
2022/07/02 12:18:41;;;;;;;5.82;0.63;;;24.90;42.40;;;;;;5041656;28;20057;-69
2022/07/02 12:21:16;;;;;;;2.17;0.80;;;25.30;44.60;;;;;;5045964;28;20079;-68
2022/07/02 12:23:50;;;;;;;4.22;0.93;;;26.70;41.60;;;;;;5038940;28;20052;-69
2022/07/02 12:26:22;;;;;;;1.88;0.30;;;26.80;38.10;;;;;;5038940;28;20123;-68
2022/07/02 12:31:51;;;;;;;1.30;0.50;;;28.00;41.60;;;;;;5048827;28;20407;-68
2022/07/02 12:34:19;;;;;;;2.55;0.82;;;28.00;37.20;;;;;;5047830;28;20460;-68
2022/07/02 12:37:03;;;;;;;2.42;0.63;;;28.30;37.20;;;;;;5047756;28;20741;-68
2022/07/02 12:39:43;;;;;;;3.25;0.70;;;28.00;36.90;;;;;;5046948;28;20032;-69
2022/07/02 12:42:27;;;;;;;1.70;0.47;;;27.70;34.80;;;;;;5042083;28;20484;-69
2022/07/02 12:44:58;;;;;;;1.52;0.70;;;28.00;36.40;;;;;;5038946;28;20064;-70
2022/07/02 12:47:34;;;;;;;3.50;0.65;;;28.50;37.20;;;;;;5034353;28;20534;-69
2022/07/02 12:50:01;;;;;;;4.07;0.80;;;28.60;37.00;;;;;;5044282;28;20033;-69
2022/07/02 12:52:30;;;;;;;2.13;0.70;;;29.50;34.70;;;;;;5047061;28;20081;-69